sensor_id;sensor_type;location;lat;lon;timestamp;P1;durP1;ratioP1;P2;durP2;ratioP2
76546;SDS011;65390;53.014;8.886;2023-03-03T00:02:19;56.40;;;25.48;;
76546;SDS011;65390;53.014;8.886;2023-03-03T00:04:45;48.63;;;24.90;;
76546;SDS011;65390;53.014;8.886;2023-03-03T00:07:10;63.42;;;28.45;;
76546;SDS011;65390;53.014;8.886;2023-03-03T00:09:36;55.50;;;25.60;;
76546;SDS011;65390;53.014;8.886;2023-03-03T00:12:01;96.03;;;38.60;;
76546;SDS011;65390;53.014;8.886;2023-03-03T00:14:49;50.67;;;26.08;;
76546;SDS011;65390;53.014;8.886;2023-03-03T00:17:22;53.83;;;27.55;;
76546;SDS011;65390;53.014;8.886;2023-03-03T00:19:48;51.78;;;25.17;;
76546;SDS011;65390;53.014;8.886;2023-03-03T00:22:25;51.97;;;25.38;;
76546;SDS011;65390;53.014;8.886;2023-03-03T00:24:54;58.83;;;27.20;;
76546;SDS011;65390;53.014;8.886;2023-03-03T00:27:27;56.05;;;26.35;;
76546;SDS011;65390;53.014;8.886;2023-03-03T00:29:56;57.60;;;28.13;;
76546;SDS011;65390;53.014;8.886;2023-03-03T00:32:30;57.00;;;27.13;;
76546;SDS011;65390;53.014;8.886;2023-03-03T00:38:01;60.65;;;27.17;;
76546;SDS011;65390;53.014;8.886;2023-03-03T00:40:37;60.40;;;28.77;;
76546;SDS011;65390;53.014;8.886;2023-03-03T00:43:20;58.60;;;27.05;;
76546;SDS011;65390;53.014;8.886;2023-03-03T00:45:53;58.28;;;28.05;;
76546;SDS011;65390;53.014;8.886;2023-03-03T00:48:26;60.88;;;27.77;;
76546;SDS011;65390;53.014;8.886;2023-03-03T00:53:54;64.47;;;29.73;;
76546;SDS011;65390;53.014;8.886;2023-03-03T00:56:20;63.85;;;29.58;;
76546;SDS011;65390;53.014;8.886;2023-03-03T00:58:45;63.90;;;29.95;;
76546;SDS011;65390;53.014;8.886;2023-03-03T01:01:12;66.82;;;30.98;;
76546;SDS011;65390;53.014;8.886;2023-03-03T01:03:38;63.90;;;28.63;;
76546;SDS011;65390;53.014;8.886;2023-03-03T01:06:03;57.33;;;27.98;;
76546;SDS011;65390;53.014;8.886;2023-03-03T01:08:29;71.18;;;30.55;;
76546;SDS011;65390;53.014;8.886;2023-03-03T01:10:55;63.40;;;29.92;;
76546;SDS011;65390;53.014;8.886;2023-03-03T01:13:24;63.58;;;27.63;;
76546;SDS011;65390;53.014;8.886;2023-03-03T01:18:17;60.50;;;28.25;;
76546;SDS011;65390;53.014;8.886;2023-03-03T01:20:43;65.97;;;30.75;;
76546;SDS011;65390;53.014;8.886;2023-03-03T01:23:09;62.58;;;30.10;;
76546;SDS011;65390;53.014;8.886;2023-03-03T01:25:34;59.50;;;29.58;;
76546;SDS011;65390;53.014;8.886;2023-03-03T01:28:00;66.43;;;30.63;;
76546;SDS011;65390;53.014;8.886;2023-03-03T01:30:26;64.90;;;29.00;;
76546;SDS011;65390;53.014;8.886;2023-03-03T01:32:51;68.45;;;30.90;;
76546;SDS011;65390;53.014;8.886;2023-03-03T01:35:17;61.90;;;29.00;;
76546;SDS011;65390;53.014;8.886;2023-03-03T01:37:43;70.43;;;31.70;;
76546;SDS011;65390;53.014;8.886;2023-03-03T01:40:16;62.33;;;29.95;;
76546;SDS011;65390;53.014;8.886;2023-03-03T01:42:44;66.28;;;31.38;;
76546;SDS011;65390;53.014;8.886;2023-03-03T01:45:11;69.63;;;31.33;;
76546;SDS011;65390;53.014;8.886;2023-03-03T01:47:37;68.63;;;30.88;;
76546;SDS011;65390;53.014;8.886;2023-03-03T01:50:04;63.38;;;32.25;;
76546;SDS011;65390;53.014;8.886;2023-03-03T01:52:38;67.75;;;31.80;;
76546;SDS011;65390;53.014;8.886;2023-03-03T01:55:14;74.50;;;31.08;;
76546;SDS011;65390;53.014;8.886;2023-03-03T01:57:48;64.30;;;30.98;;
76546;SDS011;65390;53.014;8.886;2023-03-03T02:00:20;67.68;;;31.17;;
76546;SDS011;65390;53.014;8.886;2023-03-03T02:02:46;65.03;;;29.33;;
76546;SDS011;65390;53.014;8.886;2023-03-03T02:05:12;66.70;;;29.83;;
76546;SDS011;65390;53.014;8.886;2023-03-03T02:07:39;60.88;;;31.95;;
76546;SDS011;65390;53.014;8.886;2023-03-03T02:10:05;68.25;;;30.58;;
76546;SDS011;65390;53.014;8.886;2023-03-03T02:12:43;70.18;;;31.00;;
76546;SDS011;65390;53.014;8.886;2023-03-03T02:17:49;71.90;;;33.17;;
76546;SDS011;65390;53.014;8.886;2023-03-03T02:28:22;71.88;;;34.63;;
76546;SDS011;65390;53.014;8.886;2023-03-03T02:30:53;72.28;;;34.05;;
76546;SDS011;65390;53.014;8.886;2023-03-03T02:33:19;84.00;;;38.20;;
76546;SDS011;65390;53.014;8.886;2023-03-03T02:35:45;114.60;;;43.08;;
76546;SDS011;65390;53.014;8.886;2023-03-03T02:46:13;135.50;;;48.03;;
76546;SDS011;65390;53.014;8.886;2023-03-03T02:48:39;133.15;;;48.42;;
76546;SDS011;65390;53.014;8.886;2023-03-03T02:51:04;134.02;;;46.20;;
76546;SDS011;65390;53.014;8.886;2023-03-03T02:53:30;145.95;;;47.22;;
76546;SDS011;65390;53.014;8.886;2023-03-03T02:55:55;138.65;;;49.20;;
76546;SDS011;65390;53.014;8.886;2023-03-03T02:58:20;122.80;;;43.97;;
76546;SDS011;65390;53.014;8.886;2023-03-03T03:00:46;125.25;;;46.45;;
76546;SDS011;65390;53.014;8.886;2023-03-03T03:03:12;126.00;;;46.42;;
76546;SDS011;65390;53.014;8.886;2023-03-03T03:05:37;154.52;;;49.60;;
76546;SDS011;65390;53.014;8.886;2023-03-03T03:08:03;125.30;;;42.63;;
76546;SDS011;65390;53.014;8.886;2023-03-03T03:10:28;116.05;;;43.38;;
76546;SDS011;65390;53.014;8.886;2023-03-03T03:12:53;97.80;;;40.08;;
76546;SDS011;65390;53.014;8.886;2023-03-03T03:15:19;92.43;;;34.70;;
76546;SDS011;65390;53.014;8.886;2023-03-03T03:17:44;88.45;;;34.13;;
76546;SDS011;65390;53.014;8.886;2023-03-03T03:20:10;108.75;;;37.83;;
76546;SDS011;65390;53.014;8.886;2023-03-03T03:22:35;101.07;;;38.53;;
76546;SDS011;65390;53.014;8.886;2023-03-03T03:25:01;98.07;;;35.85;;
76546;SDS011;65390;53.014;8.886;2023-03-03T03:27:26;87.82;;;33.60;;
76546;SDS011;65390;53.014;8.886;2023-03-03T03:29:52;90.00;;;34.75;;
76546;SDS011;65390;53.014;8.886;2023-03-03T03:32:17;89.57;;;34.70;;
76546;SDS011;65390;53.014;8.886;2023-03-03T03:34:42;72.47;;;32.03;;
76546;SDS011;65390;53.014;8.886;2023-03-03T03:37:08;84.07;;;35.10;;
76546;SDS011;65390;53.014;8.886;2023-03-03T03:39:34;77.10;;;33.00;;
76546;SDS011;65390;53.014;8.886;2023-03-03T03:41:59;77.25;;;31.30;;
76546;SDS011;65390;53.014;8.886;2023-03-03T03:44:25;88.18;;;34.85;;
76546;SDS011;65390;53.014;8.886;2023-03-03T03:46:50;79.10;;;31.80;;
76546;SDS011;65390;53.014;8.886;2023-03-03T03:49:16;78.25;;;33.97;;
76546;SDS011;65390;53.014;8.886;2023-03-03T03:51:41;78.72;;;35.53;;
76546;SDS011;65390;53.014;8.886;2023-03-03T03:54:06;81.72;;;34.40;;
76546;SDS011;65390;53.014;8.886;2023-03-03T03:56:32;82.55;;;32.67;;
76546;SDS011;65390;53.014;8.886;2023-03-03T03:58:57;84.82;;;37.15;;
76546;SDS011;65390;53.014;8.886;2023-03-03T04:01:23;94.15;;;36.40;;
76546;SDS011;65390;53.014;8.886;2023-03-03T04:03:49;91.10;;;35.42;;
76546;SDS011;65390;53.014;8.886;2023-03-03T04:06:14;91.05;;;37.05;;
76546;SDS011;65390;53.014;8.886;2023-03-03T04:08:40;93.45;;;36.03;;
76546;SDS011;65390;53.014;8.886;2023-03-03T04:11:05;92.68;;;36.90;;
76546;SDS011;65390;53.014;8.886;2023-03-03T04:13:30;90.50;;;36.88;;
76546;SDS011;65390;53.014;8.886;2023-03-03T04:15:59;97.20;;;39.15;;
76546;SDS011;65390;53.014;8.886;2023-03-03T04:18:25;136.45;;;47.50;;
76546;SDS011;65390;53.014;8.886;2023-03-03T04:20:50;160.63;;;53.45;;
76546;SDS011;65390;53.014;8.886;2023-03-03T04:23:16;166.63;;;52.88;;
76546;SDS011;65390;53.014;8.886;2023-03-03T04:25:44;168.10;;;52.20;;
76546;SDS011;65390;53.014;8.886;2023-03-03T04:28:10;172.20;;;54.13;;
76546;SDS011;65390;53.014;8.886;2023-03-03T04:30:35;148.43;;;48.53;;
76546;SDS011;65390;53.014;8.886;2023-03-03T04:33:01;146.07;;;50.67;;
76546;SDS011;65390;53.014;8.886;2023-03-03T04:35:26;122.45;;;41.22;;
76546;SDS011;65390;53.014;8.886;2023-03-03T04:37:51;126.18;;;46.45;;
76546;SDS011;65390;53.014;8.886;2023-03-03T04:40:17;158.13;;;49.95;;
76546;SDS011;65390;53.014;8.886;2023-03-03T04:42:42;147.05;;;47.67;;
76546;SDS011;65390;53.014;8.886;2023-03-03T04:45:08;135.45;;;44.90;;
76546;SDS011;65390;53.014;8.886;2023-03-03T04:47:34;132.52;;;44.35;;
76546;SDS011;65390;53.014;8.886;2023-03-03T04:49:59;130.18;;;48.30;;
76546;SDS011;65390;53.014;8.886;2023-03-03T04:52:25;146.07;;;46.47;;
76546;SDS011;65390;53.014;8.886;2023-03-03T04:54:50;136.93;;;46.03;;
76546;SDS011;65390;53.014;8.886;2023-03-03T04:57:15;154.57;;;50.15;;
76546;SDS011;65390;53.014;8.886;2023-03-03T04:59:41;138.88;;;48.53;;
76546;SDS011;65390;53.014;8.886;2023-03-03T05:02:06;167.55;;;54.60;;
76546;SDS011;65390;53.014;8.886;2023-03-03T05:04:32;161.30;;;51.15;;
76546;SDS011;65390;53.014;8.886;2023-03-03T05:06:58;192.80;;;60.58;;
76546;SDS011;65390;53.014;8.886;2023-03-03T05:09:23;206.98;;;60.42;;
76546;SDS011;65390;53.014;8.886;2023-03-03T05:11:48;184.80;;;59.03;;
76546;SDS011;65390;53.014;8.886;2023-03-03T05:14:14;192.05;;;61.60;;
76546;SDS011;65390;53.014;8.886;2023-03-03T05:16:39;186.13;;;60.28;;
76546;SDS011;65390;53.014;8.886;2023-03-03T05:19:05;186.50;;;59.25;;
76546;SDS011;65390;53.014;8.886;2023-03-03T05:21:30;205.30;;;65.43;;
76546;SDS011;65390;53.014;8.886;2023-03-03T05:23:55;201.77;;;64.28;;
76546;SDS011;65390;53.014;8.886;2023-03-03T05:26:21;219.15;;;67.00;;
76546;SDS011;65390;53.014;8.886;2023-03-03T05:28:46;227.18;;;68.63;;
76546;SDS011;65390;53.014;8.886;2023-03-03T05:31:11;218.63;;;66.25;;
76546;SDS011;65390;53.014;8.886;2023-03-03T05:33:37;203.90;;;67.97;;
76546;SDS011;65390;53.014;8.886;2023-03-03T05:36:02;218.00;;;68.43;;
76546;SDS011;65390;53.014;8.886;2023-03-03T05:38:28;225.35;;;69.00;;
76546;SDS011;65390;53.014;8.886;2023-03-03T05:40:53;221.52;;;64.30;;
76546;SDS011;65390;53.014;8.886;2023-03-03T05:43:19;220.98;;;69.13;;
76546;SDS011;65390;53.014;8.886;2023-03-03T05:45:44;233.52;;;71.53;;
76546;SDS011;65390;53.014;8.886;2023-03-03T05:48:10;248.50;;;69.43;;
76546;SDS011;65390;53.014;8.886;2023-03-03T05:50:36;243.55;;;68.10;;
76546;SDS011;65390;53.014;8.886;2023-03-03T05:53:02;237.73;;;66.38;;
76546;SDS011;65390;53.014;8.886;2023-03-03T05:55:27;247.52;;;71.30;;
76546;SDS011;65390;53.014;8.886;2023-03-03T05:57:53;246.82;;;68.75;;
76546;SDS011;65390;53.014;8.886;2023-03-03T06:00:19;221.35;;;66.40;;
76546;SDS011;65390;53.014;8.886;2023-03-03T06:02:45;239.00;;;71.47;;
76546;SDS011;65390;53.014;8.886;2023-03-03T06:05:10;222.68;;;67.90;;
76546;SDS011;65390;53.014;8.886;2023-03-03T06:07:36;227.93;;;67.28;;
76546;SDS011;65390;53.014;8.886;2023-03-03T06:10:02;230.52;;;66.03;;
76546;SDS011;65390;53.014;8.886;2023-03-03T06:12:28;208.90;;;63.83;;
76546;SDS011;65390;53.014;8.886;2023-03-03T06:14:54;238.60;;;76.35;;
76546;SDS011;65390;53.014;8.886;2023-03-03T06:17:19;200.45;;;63.70;;
76546;SDS011;65390;53.014;8.886;2023-03-03T06:19:45;155.50;;;50.70;;
76546;SDS011;65390;53.014;8.886;2023-03-03T06:22:11;121.70;;;39.35;;
76546;SDS011;65390;53.014;8.886;2023-03-03T06:24:37;95.90;;;34.92;;
76546;SDS011;65390;53.014;8.886;2023-03-03T06:27:02;82.90;;;28.70;;
76546;SDS011;65390;53.014;8.886;2023-03-03T06:29:28;87.20;;;32.58;;
76546;SDS011;65390;53.014;8.886;2023-03-03T06:31:53;70.68;;;27.13;;
76546;SDS011;65390;53.014;8.886;2023-03-03T06:34:18;59.80;;;23.77;;
76546;SDS011;65390;53.014;8.886;2023-03-03T06:36:44;57.67;;;22.80;;
76546;SDS011;65390;53.014;8.886;2023-03-03T06:39:09;49.50;;;20.42;;
76546;SDS011;65390;53.014;8.886;2023-03-03T06:41:35;43.58;;;19.10;;
76546;SDS011;65390;53.014;8.886;2023-03-03T06:44:01;49.67;;;19.17;;
76546;SDS011;65390;53.014;8.886;2023-03-03T06:46:26;47.88;;;21.60;;
76546;SDS011;65390;53.014;8.886;2023-03-03T06:48:52;43.33;;;20.50;;
76546;SDS011;65390;53.014;8.886;2023-03-03T06:53:55;47.05;;;22.30;;
76546;SDS011;65390;53.014;8.886;2023-03-03T06:56:23;49.60;;;21.73;;
76546;SDS011;65390;53.014;8.886;2023-03-03T06:58:52;47.05;;;22.17;;
76546;SDS011;65390;53.014;8.886;2023-03-03T07:01:19;46.17;;;22.15;;
76546;SDS011;65390;53.014;8.886;2023-03-03T07:03:44;58.70;;;26.02;;
76546;SDS011;65390;53.014;8.886;2023-03-03T07:06:23;55.97;;;23.67;;
76546;SDS011;65390;53.014;8.886;2023-03-03T07:08:53;51.45;;;23.23;;
76546;SDS011;65390;53.014;8.886;2023-03-03T07:11:27;46.28;;;22.90;;
76546;SDS011;65390;53.014;8.886;2023-03-03T07:14:01;44.58;;;22.23;;
76546;SDS011;65390;53.014;8.886;2023-03-03T07:16:37;66.38;;;29.48;;
76546;SDS011;65390;53.014;8.886;2023-03-03T07:19:03;55.67;;;23.10;;
76546;SDS011;65390;53.014;8.886;2023-03-03T07:21:38;64.43;;;24.45;;
76546;SDS011;65390;53.014;8.886;2023-03-03T07:24:20;60.25;;;25.45;;
76546;SDS011;65390;53.014;8.886;2023-03-03T07:30:23;73.43;;;32.00;;
76546;SDS011;65390;53.014;8.886;2023-03-03T07:33:22;61.17;;;27.80;;
76546;SDS011;65390;53.014;8.886;2023-03-03T07:36:05;65.43;;;29.33;;
76546;SDS011;65390;53.014;8.886;2023-03-03T07:38:52;63.53;;;27.38;;
76546;SDS011;65390;53.014;8.886;2023-03-03T07:41:24;66.50;;;29.50;;
76546;SDS011;65390;53.014;8.886;2023-03-03T07:43:57;79.93;;;31.02;;
76546;SDS011;65390;53.014;8.886;2023-03-03T07:46:36;65.10;;;27.08;;
76546;SDS011;65390;53.014;8.886;2023-03-03T07:49:41;65.22;;;28.45;;
76546;SDS011;65390;53.014;8.886;2023-03-03T07:52:19;92.35;;;40.47;;
76546;SDS011;65390;53.014;8.886;2023-03-03T07:54:47;68.93;;;31.80;;
76546;SDS011;65390;53.014;8.886;2023-03-03T07:57:17;184.65;;;85.30;;
76546;SDS011;65390;53.014;8.886;2023-03-03T07:59:46;67.05;;;30.75;;
76546;SDS011;65390;53.014;8.886;2023-03-03T08:02:55;58.47;;;27.13;;
76546;SDS011;65390;53.014;8.886;2023-03-03T08:05:11;56.20;;;25.75;;
76546;SDS011;65390;53.014;8.886;2023-03-03T08:07:49;54.33;;;24.75;;
76546;SDS011;65390;53.014;8.886;2023-03-03T08:10:48;78.45;;;28.98;;
76546;SDS011;65390;53.014;8.886;2023-03-03T08:15:42;46.72;;;20.20;;
76546;SDS011;65390;53.014;8.886;2023-03-03T08:18:14;42.03;;;18.90;;
76546;SDS011;65390;53.014;8.886;2023-03-03T08:20:47;40.70;;;19.77;;
76546;SDS011;65390;53.014;8.886;2023-03-03T08:23:15;40.92;;;19.73;;
76546;SDS011;65390;53.014;8.886;2023-03-03T08:25:41;36.17;;;18.63;;
76546;SDS011;65390;53.014;8.886;2023-03-03T08:28:08;38.60;;;19.60;;
76546;SDS011;65390;53.014;8.886;2023-03-03T08:30:34;38.33;;;19.30;;
76546;SDS011;65390;53.014;8.886;2023-03-03T08:32:59;34.38;;;16.00;;
76546;SDS011;65390;53.014;8.886;2023-03-03T08:35:25;43.33;;;19.55;;
76546;SDS011;65390;53.014;8.886;2023-03-03T08:37:50;47.72;;;22.15;;
76546;SDS011;65390;53.014;8.886;2023-03-03T08:40:16;37.70;;;19.08;;
76546;SDS011;65390;53.014;8.886;2023-03-03T08:42:41;37.92;;;18.25;;
76546;SDS011;65390;53.014;8.886;2023-03-03T08:45:07;29.23;;;16.13;;
76546;SDS011;65390;53.014;8.886;2023-03-03T08:47:32;27.73;;;14.38;;
76546;SDS011;65390;53.014;8.886;2023-03-03T08:49:58;28.17;;;15.10;;
76546;SDS011;65390;53.014;8.886;2023-03-03T08:52:23;22.85;;;12.20;;
76546;SDS011;65390;53.014;8.886;2023-03-03T08:54:48;22.95;;;12.82;;
76546;SDS011;65390;53.014;8.886;2023-03-03T08:57:14;32.67;;;15.68;;
76546;SDS011;65390;53.014;8.886;2023-03-03T08:59:39;29.98;;;15.95;;
76546;SDS011;65390;53.014;8.886;2023-03-03T09:02:05;42.50;;;18.90;;
76546;SDS011;65390;53.014;8.886;2023-03-03T09:04:31;28.92;;;14.55;;
76546;SDS011;65390;53.014;8.886;2023-03-03T09:06:56;26.10;;;13.65;;
76546;SDS011;65390;53.014;8.886;2023-03-03T09:09:22;23.45;;;12.77;;
76546;SDS011;65390;53.014;8.886;2023-03-03T09:11:47;26.15;;;14.10;;
76546;SDS011;65390;53.014;8.886;2023-03-03T09:14:14;22.60;;;12.82;;
76546;SDS011;65390;53.014;8.886;2023-03-03T09:16:51;25.90;;;13.65;;
76546;SDS011;65390;53.014;8.886;2023-03-03T09:19:30;28.15;;;13.85;;
76546;SDS011;65390;53.014;8.886;2023-03-03T09:22:10;35.10;;;17.25;;
76546;SDS011;65390;53.014;8.886;2023-03-03T09:24:46;22.55;;;12.77;;
76546;SDS011;65390;53.014;8.886;2023-03-03T09:27:30;23.08;;;12.23;;
76546;SDS011;65390;53.014;8.886;2023-03-03T09:30:46;19.92;;;11.70;;
76546;SDS011;65390;53.014;8.886;2023-03-03T09:32:50;20.73;;;11.88;;
76546;SDS011;65390;53.014;8.886;2023-03-03T09:35:36;22.83;;;12.02;;
76546;SDS011;65390;53.014;8.886;2023-03-03T09:38:12;20.95;;;11.05;;
76546;SDS011;65390;53.014;8.886;2023-03-03T09:43:34;21.08;;;11.93;;
76546;SDS011;65390;53.014;8.886;2023-03-03T09:46:39;71.55;;;36.20;;
76546;SDS011;65390;53.014;8.886;2023-03-03T09:49:29;22.95;;;12.30;;
76546;SDS011;65390;53.014;8.886;2023-03-03T09:52:06;26.27;;;11.75;;
76546;SDS011;65390;53.014;8.886;2023-03-03T09:55:11;20.52;;;11.23;;
76546;SDS011;65390;53.014;8.886;2023-03-03T10:00:45;21.52;;;12.30;;
76546;SDS011;65390;53.014;8.886;2023-03-03T10:05:57;23.83;;;12.27;;
76546;SDS011;65390;53.014;8.886;2023-03-03T10:08:31;25.58;;;13.55;;
76546;SDS011;65390;53.014;8.886;2023-03-03T10:19:00;33.25;;;16.30;;
76546;SDS011;65390;53.014;8.886;2023-03-03T10:32:57;31.65;;;17.25;;
76546;SDS011;65390;53.014;8.886;2023-03-03T10:35:50;45.38;;;22.48;;
76546;SDS011;65390;53.014;8.886;2023-03-03T10:49:40;30.70;;;17.95;;
76546;SDS011;65390;53.014;8.886;2023-03-03T10:52:15;40.67;;;21.05;;
76546;SDS011;65390;53.014;8.886;2023-03-03T10:57:51;33.08;;;19.73;;
76546;SDS011;65390;53.014;8.886;2023-03-03T11:09:14;43.65;;;24.70;;
76546;SDS011;65390;53.014;8.886;2023-03-03T11:27:50;55.63;;;32.25;;
76546;SDS011;65390;53.014;8.886;2023-03-03T11:30:43;51.65;;;30.92;;
76546;SDS011;65390;53.014;8.886;2023-03-03T11:33:22;51.53;;;30.98;;
76546;SDS011;65390;53.014;8.886;2023-03-03T11:36:29;48.92;;;27.02;;
76546;SDS011;65390;53.014;8.886;2023-03-03T11:44:23;39.67;;;22.77;;
76546;SDS011;65390;53.014;8.886;2023-03-03T11:52:39;44.83;;;26.67;;
76546;SDS011;65390;53.014;8.886;2023-03-03T11:55:19;44.13;;;25.50;;
76546;SDS011;65390;53.014;8.886;2023-03-03T11:57:57;36.20;;;20.25;;
76546;SDS011;65390;53.014;8.886;2023-03-03T12:08:43;25.80;;;15.05;;
76546;SDS011;65390;53.014;8.886;2023-03-03T12:16:58;22.77;;;12.80;;
76546;SDS011;65390;53.014;8.886;2023-03-03T12:19:50;20.88;;;12.63;;
76546;SDS011;65390;53.014;8.886;2023-03-03T12:25:24;20.77;;;12.18;;
76546;SDS011;65390;53.014;8.886;2023-03-03T12:41:21;26.45;;;14.38;;
76546;SDS011;65390;53.014;8.886;2023-03-03T12:44:02;21.40;;;11.55;;
76546;SDS011;65390;53.014;8.886;2023-03-03T12:46:43;34.88;;;16.10;;
76546;SDS011;65390;53.014;8.886;2023-03-03T12:49:11;56.28;;;23.75;;
76546;SDS011;65390;53.014;8.886;2023-03-03T13:02:42;18.25;;;9.95;;
76546;SDS011;65390;53.014;8.886;2023-03-03T13:16:03;10.10;;;5.85;;
76546;SDS011;65390;53.014;8.886;2023-03-03T13:18:54;8.35;;;4.07;;
76546;SDS011;65390;53.014;8.886;2023-03-03T13:24:19;11.63;;;5.38;;
76546;SDS011;65390;53.014;8.886;2023-03-03T13:26:51;8.93;;;4.45;;
76546;SDS011;65390;53.014;8.886;2023-03-03T13:29:29;9.15;;;5.68;;
76546;SDS011;65390;53.014;8.886;2023-03-03T13:32:18;22.77;;;11.20;;
76546;SDS011;65390;53.014;8.886;2023-03-03T13:37:31;9.82;;;4.18;;
76546;SDS011;65390;53.014;8.886;2023-03-03T13:42:43;10.60;;;4.75;;
76546;SDS011;65390;53.014;8.886;2023-03-03T13:45:23;10.90;;;5.22;;
76546;SDS011;65390;53.014;8.886;2023-03-03T13:58:37;18.38;;;7.38;;
76546;SDS011;65390;53.014;8.886;2023-03-03T14:01:21;4.88;;;2.90;;
76546;SDS011;65390;53.014;8.886;2023-03-03T14:04:30;8.88;;;3.15;;
76546;SDS011;65390;53.014;8.886;2023-03-03T14:06:54;5.90;;;3.30;;
76546;SDS011;65390;53.014;8.886;2023-03-03T14:14:48;4.93;;;1.92;;
76546;SDS011;65390;53.014;8.886;2023-03-03T14:17:26;7.10;;;2.10;;
76546;SDS011;65390;53.014;8.886;2023-03-03T14:20:14;9.05;;;2.88;;
76546;SDS011;65390;53.014;8.886;2023-03-03T14:22:54;8.65;;;2.03;;
76546;SDS011;65390;53.014;8.886;2023-03-03T14:25:23;9.60;;;2.08;;
76546;SDS011;65390;53.014;8.886;2023-03-03T14:33:01;8.10;;;2.20;;
76546;SDS011;65390;53.014;8.886;2023-03-03T14:35:33;5.55;;;2.72;;
76546;SDS011;65390;53.014;8.886;2023-03-03T14:38:13;7.65;;;2.17;;
76546;SDS011;65390;53.014;8.886;2023-03-03T14:40:44;4.53;;;1.73;;
76546;SDS011;65390;53.014;8.886;2023-03-03T14:43:39;4.13;;;1.80;;
76546;SDS011;65390;53.014;8.886;2023-03-03T14:49:34;5.88;;;2.60;;
76546;SDS011;65390;53.014;8.886;2023-03-03T14:54:55;11.95;;;3.92;;
76546;SDS011;65390;53.014;8.886;2023-03-03T15:00:25;5.78;;;2.65;;
76546;SDS011;65390;53.014;8.886;2023-03-03T15:05:48;6.97;;;3.00;;
76546;SDS011;65390;53.014;8.886;2023-03-03T15:08:15;7.63;;;3.63;;
76546;SDS011;65390;53.014;8.886;2023-03-03T15:11:11;19.23;;;9.60;;
76546;SDS011;65390;53.014;8.886;2023-03-03T15:14:13;18.92;;;8.00;;
76546;SDS011;65390;53.014;8.886;2023-03-03T15:16:41;10.02;;;4.68;;
76546;SDS011;65390;53.014;8.886;2023-03-03T15:19:23;5.65;;;3.22;;
76546;SDS011;65390;53.014;8.886;2023-03-03T15:24:46;9.32;;;4.53;;
76546;SDS011;65390;53.014;8.886;2023-03-03T15:30:35;5.55;;;3.47;;
76546;SDS011;65390;53.014;8.886;2023-03-03T15:35:55;12.48;;;4.78;;
76546;SDS011;65390;53.014;8.886;2023-03-03T15:41:07;8.55;;;3.70;;
76546;SDS011;65390;53.014;8.886;2023-03-03T15:43:57;9.40;;;4.20;;
76546;SDS011;65390;53.014;8.886;2023-03-03T16:03:04;11.07;;;5.47;;
76546;SDS011;65390;53.014;8.886;2023-03-03T16:05:41;7.82;;;4.47;;
76546;SDS011;65390;53.014;8.886;2023-03-03T16:08:15;14.55;;;7.72;;
76546;SDS011;65390;53.014;8.886;2023-03-03T16:15:56;8.07;;;4.32;;
76546;SDS011;65390;53.014;8.886;2023-03-03T16:23:57;8.18;;;4.38;;
76546;SDS011;65390;53.014;8.886;2023-03-03T16:26:30;12.40;;;4.07;;
76546;SDS011;65390;53.014;8.886;2023-03-03T16:31:53;10.40;;;3.92;;
76546;SDS011;65390;53.014;8.886;2023-03-03T16:40:02;6.18;;;4.60;;
76546;SDS011;65390;53.014;8.886;2023-03-03T16:42:32;5.97;;;3.88;;
76546;SDS011;65390;53.014;8.886;2023-03-03T16:53:14;11.73;;;5.57;;
76546;SDS011;65390;53.014;8.886;2023-03-03T16:55:57;17.55;;;8.82;;
76546;SDS011;65390;53.014;8.886;2023-03-03T17:06:45;51.33;;;17.90;;
76546;SDS011;65390;53.014;8.886;2023-03-03T17:09:25;34.13;;;10.60;;
76546;SDS011;65390;53.014;8.886;2023-03-03T17:12:12;6.93;;;2.60;;
76546;SDS011;65390;53.014;8.886;2023-03-03T17:32:09;59.67;;;16.00;;
76546;SDS011;65390;53.014;8.886;2023-03-03T17:34:46;37.35;;;13.07;;
76546;SDS011;65390;53.014;8.886;2023-03-03T17:45:26;66.57;;;24.05;;
76546;SDS011;65390;53.014;8.886;2023-03-03T17:59:38;11.90;;;3.90;;
76546;SDS011;65390;53.014;8.886;2023-03-03T18:07:21;10.18;;;3.67;;
76546;SDS011;65390;53.014;8.886;2023-03-03T18:21:24;21.90;;;6.90;;
76546;SDS011;65390;53.014;8.886;2023-03-03T18:24:24;15.80;;;4.50;;
76546;SDS011;65390;53.014;8.886;2023-03-03T18:37:57;19.52;;;4.55;;
76546;SDS011;65390;53.014;8.886;2023-03-03T18:56:49;27.13;;;7.80;;
76546;SDS011;65390;53.014;8.886;2023-03-03T19:24:03;37.55;;;7.40;;
76546;SDS011;65390;53.014;8.886;2023-03-03T19:34:38;33.15;;;5.65;;
76546;SDS011;65390;53.014;8.886;2023-03-03T19:54:13;30.70;;;6.00;;
76546;SDS011;65390;53.014;8.886;2023-03-03T19:56:56;32.20;;;7.05;;
76546;SDS011;65390;53.014;8.886;2023-03-03T19:59:46;31.23;;;7.75;;
76546;SDS011;65390;53.014;8.886;2023-03-03T20:05:22;34.28;;;8.00;;
76546;SDS011;65390;53.014;8.886;2023-03-03T20:08:56;35.95;;;8.25;;
76546;SDS011;65390;53.014;8.886;2023-03-03T20:11:31;25.85;;;5.80;;
76546;SDS011;65390;53.014;8.886;2023-03-03T20:32:02;32.10;;;7.57;;
76546;SDS011;65390;53.014;8.886;2023-03-03T20:34:37;29.08;;;5.95;;
76546;SDS011;65390;53.014;8.886;2023-03-03T20:37:13;26.92;;;6.38;;
76546;SDS011;65390;53.014;8.886;2023-03-03T20:42:48;31.25;;;8.20;;
76546;SDS011;65390;53.014;8.886;2023-03-03T20:45:45;24.27;;;6.32;;
76546;SDS011;65390;53.014;8.886;2023-03-03T20:51:10;29.05;;;7.60;;
76546;SDS011;65390;53.014;8.886;2023-03-03T21:00:12;27.80;;;5.25;;
76546;SDS011;65390;53.014;8.886;2023-03-03T21:05:56;31.42;;;7.18;;
76546;SDS011;65390;53.014;8.886;2023-03-03T21:08:42;32.38;;;7.07;;
76546;SDS011;65390;53.014;8.886;2023-03-03T21:11:20;38.08;;;6.82;;
76546;SDS011;65390;53.014;8.886;2023-03-03T21:13:54;23.05;;;5.88;;
76546;SDS011;65390;53.014;8.886;2023-03-03T21:19:05;42.85;;;12.10;;
76546;SDS011;65390;53.014;8.886;2023-03-03T21:21:39;29.73;;;9.75;;
76546;SDS011;65390;53.014;8.886;2023-03-03T21:24:06;33.63;;;7.68;;
76546;SDS011;65390;53.014;8.886;2023-03-03T21:26:44;37.28;;;7.85;;
76546;SDS011;65390;53.014;8.886;2023-03-03T21:29:18;37.17;;;7.18;;
76546;SDS011;65390;53.014;8.886;2023-03-03T21:31:58;43.45;;;11.80;;
76546;SDS011;65390;53.014;8.886;2023-03-03T21:34:35;35.90;;;7.32;;
76546;SDS011;65390;53.014;8.886;2023-03-03T21:37:04;35.38;;;8.35;;
76546;SDS011;65390;53.014;8.886;2023-03-03T21:39:37;58.15;;;16.80;;
76546;SDS011;65390;53.014;8.886;2023-03-03T21:47:22;53.92;;;13.65;;
76546;SDS011;65390;53.014;8.886;2023-03-03T21:49:51;33.28;;;8.13;;
76546;SDS011;65390;53.014;8.886;2023-03-03T21:52:18;30.00;;;6.35;;
76546;SDS011;65390;53.014;8.886;2023-03-03T21:54:45;36.47;;;9.30;;
76546;SDS011;65390;53.014;8.886;2023-03-03T21:57:12;44.95;;;12.15;;
76546;SDS011;65390;53.014;8.886;2023-03-03T21:59:38;40.40;;;10.43;;
76546;SDS011;65390;53.014;8.886;2023-03-03T22:02:04;45.95;;;8.90;;
76546;SDS011;65390;53.014;8.886;2023-03-03T22:04:29;33.97;;;9.07;;
76546;SDS011;65390;53.014;8.886;2023-03-03T22:06:55;38.92;;;6.90;;
76546;SDS011;65390;53.014;8.886;2023-03-03T22:09:21;40.97;;;8.75;;
76546;SDS011;65390;53.014;8.886;2023-03-03T22:11:46;40.40;;;9.18;;
76546;SDS011;65390;53.014;8.886;2023-03-03T22:14:12;50.92;;;8.45;;
76546;SDS011;65390;53.014;8.886;2023-03-03T22:16:37;58.03;;;13.35;;